Time;durP1;ratioP1;P1;durP2;ratioP2;P2;SDS_P1;SDS_P2;PMS_P1;PMS_P2;Temp;Humidity;BMP_temperature;BMP_pressure;BME280_temperature;BME280_humidity;BME280_pressure;Samples;Min_cycle;Max_cycle;Signal;HPM_P1;HPM_P2
2021/03/30 00:02:18;;;;;;;4.85;2.83;;;11.50;59.00;;;;;;5071658;28;20294;-76
2021/03/30 00:04:45;;;;;;;4.75;3.78;;;11.50;59.10;;;;;;5072051;28;20254;-76
2021/03/30 00:07:12;;;;;;;4.03;3.35;;;11.50;59.40;;;;;;5071600;28;20325;-75
2021/03/30 00:09:38;;;;;;;5.00;3.90;;;11.50;59.70;;;;;;5071791;28;20294;-77
2021/03/30 00:12:06;;;;;;;4.88;3.63;;;11.40;59.60;;;;;;5071447;28;20232;-76
2021/03/30 00:14:32;;;;;;;6.05;4.18;;;11.40;59.60;;;;;;5071319;28;20751;-75
2021/03/30 00:16:58;;;;;;;6.88;3.90;;;11.30;59.80;;;;;;5071438;28;20290;-76
2021/03/30 00:19:25;;;;;;;5.35;3.85;;;11.30;60.10;;;;;;5071670;28;20786;-77
2021/03/30 00:21:52;;;;;;;6.35;3.67;;;11.30;60.50;;;;;;5072867;28;20906;-76
2021/03/30 00:24:19;;;;;;;5.93;4.55;;;11.30;60.60;;;;;;5075157;28;20293;-75
2021/03/30 00:26:45;;;;;;;6.47;3.67;;;11.20;60.80;;;;;;5074878;28;20237;-75
2021/03/30 00:29:12;;;;;;;5.43;4.10;;;11.20;60.70;;;;;;5074832;28;20199;-76
2021/03/30 00:31:38;;;;;;;6.70;4.07;;;11.00;60.50;;;;;;5074784;28;20199;-76
2021/03/30 00:34:04;;;;;;;4.32;3.70;;;11.00;60.50;;;;;;5074522;28;20205;-76
2021/03/30 00:36:30;;;;;;;5.70;4.07;;;11.00;60.30;;;;;;5074645;28;20644;-77
2021/03/30 00:38:57;;;;;;;5.05;3.92;;;11.00;61.70;;;;;;5074653;28;20745;-76
2021/03/30 00:41:24;;;;;;;4.60;3.50;;;10.90;61.10;;;;;;5074447;28;20804;-75
2021/03/30 00:43:50;;;;;;;4.13;3.50;;;10.90;61.70;;;;;;5074401;28;20599;-73
2021/03/30 00:46:19;;;;;;;6.65;4.70;;;10.70;61.90;;;;;;5074381;28;20330;-75
2021/03/30 00:48:48;;;;;;;5.47;3.78;;;10.70;62.20;;;;;;5074459;28;20618;-73
2021/03/30 00:51:15;;;;;;;6.80;3.55;;;10.70;62.40;;;;;;5074590;28;20248;-75
2021/03/30 00:53:41;;;;;;;5.20;3.67;;;10.70;62.60;;;;;;5074295;28;20203;-75
2021/03/30 00:56:08;;;;;;;5.50;4.00;;;10.70;62.80;;;;;;5073962;28;20241;-73
2021/03/30 00:58:35;;;;;;;5.13;3.42;;;10.70;62.60;;;;;;5074276;28;20848;-72
2021/03/30 01:01:02;;;;;;;4.32;3.90;;;10.60;63.10;;;;;;5074749;28;20275;-69
2021/03/30 01:03:28;;;;;;;4.57;3.63;;;10.50;63.60;;;;;;5075773;28;20202;-69
2021/03/30 01:05:55;;;;;;;8.10;4.00;;;10.60;64.00;;;;;;5075844;28;20250;-69
2021/03/30 01:08:36;;;;;;;5.28;3.92;;;10.60;64.50;;;;;;5075682;28;20246;-69
2021/03/30 01:11:11;;;;;;;6.35;3.90;;;10.60;65.00;;;;;;5075463;28;20202;-69
2021/03/30 01:14:08;;;;;;;5.68;3.30;;;10.50;65.20;;;;;;5075545;28;20673;-69
2021/03/30 01:16:42;;;;;;;7.20;3.63;;;10.40;66.10;;;;;;5071737;28;20209;-69
2021/03/30 01:19:28;;;;;;;5.90;3.58;;;10.30;66.80;;;;;;5075798;28;20203;-69
2021/03/30 01:22:25;;;;;;;3.15;2.80;;;10.30;67.50;;;;;;5075709;28;20223;-69
2021/03/30 01:24:57;;;;;;;4.35;3.63;;;10.40;68.30;;;;;;5075487;28;20313;-69
2021/03/30 01:27:35;;;;;;;4.07;3.55;;;10.40;68.20;;;;;;5075430;28;20599;-69
2021/03/30 01:30:05;;;;;;;3.22;2.80;;;10.40;68.40;;;;;;5075640;28;20211;-69
2021/03/30 01:32:36;;;;;;;4.32;3.42;;;10.30;68.70;;;;;;5075164;28;20669;-69
2021/03/30 01:35:07;;;;;;;4.47;3.30;;;10.20;69.60;;;;;;5075309;28;20256;-69
2021/03/30 01:37:38;;;;;;;4.60;3.28;;;10.30;70.10;;;;;;5074963;28;20210;-69
2021/03/30 01:40:07;;;;;;;4.43;3.10;;;10.30;70.50;;;;;;5075301;28;20269;-69
2021/03/30 01:42:34;;;;;;;6.50;3.35;;;10.40;70.80;;;;;;5075329;28;20210;-69
2021/03/30 01:45:03;;;;;;;4.63;3.45;;;10.30;71.30;;;;;;5074742;28;20321;-69
2021/03/30 01:47:31;;;;;;;4.85;3.75;;;10.20;72.00;;;;;;5074808;28;20308;-69
2021/03/30 01:49:58;;;;;;;5.70;4.15;;;10.20;72.30;;;;;;5074766;28;20305;-69
2021/03/30 01:52:25;;;;;;;5.05;3.50;;;10.20;72.30;;;;;;5075000;28;20210;-69
2021/03/30 01:54:53;;;;;;;6.10;3.88;;;10.10;72.50;;;;;;5074765;28;20310;-69
2021/03/30 01:57:23;;;;;;;7.03;3.90;;;10.10;72.70;;;;;;5074756;28;20289;-69
2021/03/30 01:59:52;;;;;;;5.00;3.90;;;10.00;72.90;;;;;;5074626;28;20197;-69
2021/03/30 02:02:20;;;;;;;8.50;4.20;;;10.00;73.20;;;;;;5074736;28;20199;-69
2021/03/30 02:04:47;;;;;;;6.47;4.45;;;9.90;75.50;;;;;;5074704;28;20254;-69
2021/03/30 02:07:15;;;;;;;5.90;4.25;;;9.90;75.90;;;;;;5074099;28;20298;-69
2021/03/30 02:09:46;;;;;;;6.00;4.20;;;9.90;76.60;;;;;;5074831;28;20668;-69
2021/03/30 02:12:14;;;;;;;5.55;4.18;;;9.90;76.70;;;;;;5074401;28;20203;-69
2021/03/30 02:14:41;;;;;;;4.60;3.75;;;9.80;77.20;;;;;;5074146;28;20226;-69
2021/03/30 02:17:13;;;;;;;5.13;4.15;;;9.80;78.30;;;;;;5074318;28;20203;-68
2021/03/30 02:19:48;;;;;;;7.15;4.20;;;9.80;78.50;;;;;;5074568;28;20214;-69
2021/03/30 02:22:23;;;;;;;6.57;4.40;;;9.70;78.70;;;;;;5074653;28;20208;-69
2021/03/30 02:24:50;;;;;;;5.90;3.85;;;9.70;78.50;;;;;;5074243;28;20271;-69
2021/03/30 02:27:16;;;;;;;6.78;4.93;;;9.70;78.50;;;;;;5074111;28;20199;-69
2021/03/30 02:29:45;;;;;;;5.95;4.35;;;9.60;78.80;;;;;;5074221;28;20294;-69
2021/03/30 02:32:15;;;;;;;4.97;4.45;;;9.70;79.30;;;;;;5074458;28;20275;-69
2021/03/30 02:34:45;;;;;;;5.65;4.75;;;9.80;79.50;;;;;;5074195;28;20226;-69
2021/03/30 02:37:12;;;;;;;6.00;4.53;;;9.70;79.50;;;;;;5073865;28;20195;-69
2021/03/30 02:39:40;;;;;;;7.43;4.57;;;9.70;79.30;;;;;;5073878;28;20241;-69
2021/03/30 02:42:07;;;;;;;6.45;4.15;;;9.70;79.70;;;;;;5074010;28;20313;-69
2021/03/30 02:44:34;;;;;;;5.80;3.92;;;9.70;79.90;;;;;;5072752;28;20708;-69
2021/03/30 02:47:01;;;;;;;7.53;3.85;;;9.70;80.40;;;;;;5073980;28;20569;-68
2021/03/30 02:49:28;;;;;;;6.70;4.28;;;9.50;80.40;;;;;;5074244;28;20207;-69
2021/03/30 02:51:57;;;;;;;5.68;4.78;;;9.40;81.40;;;;;;5074051;28;20283;-68
2021/03/30 02:54:25;;;;;;;6.68;4.22;;;9.40;81.90;;;;;;5073606;28;20210;-69
2021/03/30 02:56:51;;;;;;;6.90;4.50;;;9.40;81.90;;;;;;5073698;28;20251;-68
2021/03/30 02:59:19;;;;;;;6.35;4.55;;;9.40;82.40;;;;;;5074030;28;20294;-69
2021/03/30 03:01:48;;;;;;;5.68;4.20;;;9.40;82.90;;;;;;5073987;28;20223;-68
2021/03/30 03:04:15;;;;;;;8.30;4.55;;;9.30;83.50;;;;;;5074013;28;20557;-68
2021/03/30 03:06:43;;;;;;;6.65;4.70;;;9.30;83.80;;;;;;5073629;28;20294;-68
2021/03/30 03:09:12;;;;;;;6.45;4.75;;;9.20;84.30;;;;;;5073600;28;20667;-69
2021/03/30 03:11:40;;;;;;;7.97;5.00;;;9.20;84.80;;;;;;5073878;28;20205;-68
2021/03/30 03:14:08;;;;;;;6.97;4.78;;;9.20;85.10;;;;;;5073961;28;20423;-68
2021/03/30 03:16:35;;;;;;;6.30;5.20;;;9.10;85.20;;;;;;5073686;28;20560;-68
2021/03/30 03:19:02;;;;;;;5.72;4.45;;;9.00;85.60;;;;;;5073526;28;20298;-69
2021/03/30 03:21:29;;;;;;;7.05;4.70;;;9.10;86.20;;;;;;5073546;28;20226;-69
2021/03/30 03:23:56;;;;;;;6.80;4.85;;;9.10;86.10;;;;;;5073567;28;20210;-69
2021/03/30 03:26:24;;;;;;;5.80;4.65;;;9.00;86.00;;;;;;5073791;28;20624;-68
2021/03/30 03:28:50;;;;;;;8.68;4.35;;;9.00;86.70;;;;;;5073735;28;20208;-69
2021/03/30 03:31:16;;;;;;;6.25;4.60;;;9.00;87.30;;;;;;5073770;28;20539;-69
2021/03/30 03:33:43;;;;;;;6.47;4.70;;;9.00;87.70;;;;;;5073465;28;20203;-69
2021/03/30 03:36:11;;;;;;;7.18;4.43;;;9.00;88.40;;;;;;5073414;28;20313;-68
2021/03/30 03:38:39;;;;;;;6.50;4.53;;;8.90;88.80;;;;;;5073396;28;20202;-69
2021/03/30 03:41:07;;;;;;;10.02;4.70;;;8.80;88.80;;;;;;5073040;28;20731;-69
2021/03/30 03:43:35;;;;;;;7.45;5.10;;;8.80;89.20;;;;;;5073233;28;20668;-69
2021/03/30 03:46:02;;;;;;;9.40;4.70;;;8.80;89.80;;;;;;5072730;28;20325;-69
2021/03/30 03:48:28;;;;;;;9.80;4.63;;;8.70;89.50;;;;;;5073325;28;20202;-69
2021/03/30 03:50:59;;;;;;;5.10;4.47;;;8.70;89.30;;;;;;5073897;28;20205;-69
2021/03/30 03:53:28;;;;;;;8.00;5.25;;;8.60;89.70;;;;;;5073282;28;20202;-69
2021/03/30 03:55:56;;;;;;;9.18;4.90;;;8.70;90.10;;;;;;5074257;28;20234;-68
2021/03/30 03:58:27;;;;;;;10.45;5.00;;;8.70;90.00;;;;;;5077195;28;20285;-69
2021/03/30 04:00:55;;;;;;;9.45;4.85;;;8.60;90.00;;;;;;5076985;28;20252;-69
2021/03/30 04:03:24;;;;;;;8.05;5.70;;;8.60;90.30;;;;;;5077054;28;20221;-69
2021/03/30 04:06:05;;;;;;;8.48;6.10;;;8.70;90.30;;;;;;5076975;28;20689;-69
2021/03/30 04:08:34;;;;;;;7.43;5.97;;;8.70;90.40;;;;;;5076826;28;20202;-69
2021/03/30 04:11:04;;;;;;;5.63;4.60;;;8.60;90.40;;;;;;5076755;28;20206;-69
2021/03/30 04:13:32;;;;;;;6.32;4.65;;;8.60;90.60;;;;;;5076883;28;20582;-69
2021/03/30 04:16:02;;;;;;;8.95;5.05;;;8.70;90.70;;;;;;5076123;28;20738;-68
2021/03/30 04:18:29;;;;;;;7.78;4.93;;;8.70;90.60;;;;;;5076652;28;20256;-68
2021/03/30 04:20:55;;;;;;;7.60;5.53;;;8.70;90.70;;;;;;5076369;28;20685;-69
2021/03/30 04:23:24;;;;;;;5.78;4.85;;;8.70;90.90;;;;;;5076468;28;20260;-69
2021/03/30 04:25:51;;;;;;;8.55;5.15;;;8.70;90.90;;;;;;5076311;28;20234;-69
2021/03/30 04:28:18;;;;;;;7.63;4.82;;;8.70;91.20;;;;;;5076410;28;20732;-68
2021/03/30 04:30:44;;;;;;;6.93;5.38;;;8.70;91.40;;;;;;5076259;28;20632;-69
2021/03/30 04:33:11;;;;;;;8.95;5.78;;;8.60;91.40;;;;;;5076100;28;20212;-69
2021/03/30 04:35:38;;;;;;;7.85;5.00;;;8.50;91.70;;;;;;5076147;28;20223;-68
2021/03/30 04:38:04;;;;;;;7.35;4.90;;;8.50;91.90;;;;;;5076075;28;20206;-68
2021/03/30 04:40:31;;;;;;;8.93;5.45;;;8.40;91.80;;;;;;5076266;28;20252;-68
2021/03/30 04:42:57;;;;;;;7.63;5.57;;;8.40;92.00;;;;;;5076357;28;20336;-68
2021/03/30 04:45:24;;;;;;;6.25;5.28;;;8.40;92.10;;;;;;5076164;28;20238;-69
2021/03/30 04:47:50;;;;;;;6.10;4.70;;;8.40;92.30;;;;;;5076253;28;20722;-68
2021/03/30 04:50:17;;;;;;;8.02;5.63;;;8.30;92.70;;;;;;5076404;28;20344;-68
2021/03/30 04:52:43;;;;;;;7.00;4.78;;;8.30;92.80;;;;;;5075997;28;20247;-69
2021/03/30 04:55:10;;;;;;;11.65;5.95;;;8.30;92.90;;;;;;5076178;28;20219;-69
2021/03/30 04:57:37;;;;;;;8.18;5.88;;;8.30;93.00;;;;;;5075776;28;20294;-68
2021/03/30 05:00:04;;;;;;;8.55;5.75;;;8.30;93.10;;;;;;5075853;28;20299;-69
2021/03/30 05:02:31;;;;;;;10.45;5.80;;;8.20;93.10;;;;;;5076284;28;20237;-69
2021/03/30 05:04:57;;;;;;;9.75;5.65;;;8.20;93.20;;;;;;5075908;28;20566;-69
2021/03/30 05:07:24;;;;;;;12.23;5.03;;;8.20;93.30;;;;;;5074751;28;20293;-68
2021/03/30 05:09:51;;;;;;;7.00;5.05;;;8.20;93.40;;;;;;5075591;28;20230;-69
2021/03/30 05:12:17;;;;;;;7.43;5.75;;;8.20;93.70;;;;;;5075745;28;20223;-69
2021/03/30 05:14:43;;;;;;;11.20;6.15;;;8.00;93.90;;;;;;5075387;28;20226;-69
2021/03/30 05:17:09;;;;;;;7.30;5.60;;;8.00;94.10;;;;;;5075330;28;20753;-68
2021/03/30 05:19:36;;;;;;;7.22;5.70;;;7.90;94.10;;;;;;5075152;28;20294;-69
2021/03/30 05:22:02;;;;;;;8.80;4.90;;;8.00;94.30;;;;;;5075273;28;20253;-69
2021/03/30 05:24:29;;;;;;;9.77;5.55;;;8.00;94.70;;;;;;5075369;28;20275;-69
2021/03/30 05:26:56;;;;;;;8.35;5.82;;;8.00;95.00;;;;;;5075234;28;20217;-71
2021/03/30 05:29:22;;;;;;;7.25;4.70;;;8.00;94.90;;;;;;5075513;28;20725;-69
2021/03/30 05:31:48;;;;;;;6.88;4.80;;;8.10;94.70;;;;;;5075534;28;20223;-69
2021/03/30 05:34:14;;;;;;;9.18;5.28;;;8.20;94.50;;;;;;5074892;28;20268;-69
2021/03/30 05:36:41;;;;;;;8.20;5.32;;;8.20;94.50;;;;;;5074807;28;20207;-69
2021/03/30 05:39:08;;;;;;;8.82;5.90;;;8.20;94.40;;;;;;5075058;28;20294;-69
2021/03/30 05:41:38;;;;;;;10.18;6.93;;;8.20;94.40;;;;;;5075276;28;20203;-69
2021/03/30 05:44:05;;;;;;;10.98;5.35;;;8.10;94.40;;;;;;5075077;28;20218;-69
2021/03/30 05:46:32;;;;;;;10.45;6.50;;;8.10;94.50;;;;;;5075169;28;20229;-69
2021/03/30 05:48:58;;;;;;;11.23;5.30;;;8.10;94.90;;;;;;5074921;28;20297;-69
2021/03/30 05:51:27;;;;;;;8.30;5.30;;;8.10;95.10;;;;;;5074860;28;20763;-69
2021/03/30 05:53:57;;;;;;;9.32;5.90;;;8.10;95.10;;;;;;5074791;28;20207;-69
2021/03/30 05:56:25;;;;;;;9.38;5.63;;;8.10;95.00;;;;;;5074656;28;20230;-68
2021/03/30 05:58:56;;;;;;;7.18;5.53;;;8.10;94.90;;;;;;5075091;28;20584;-69
2021/03/30 06:01:24;;;;;;;6.50;4.97;;;8.10;95.20;;;;;;5074411;28;20667;-69
2021/03/30 06:03:53;;;;;;;8.38;5.10;;;8.10;95.70;;;;;;5074519;28;20290;-69
2021/03/30 06:06:22;;;;;;;9.50;6.10;;;8.10;95.40;;;;;;5074084;28;20253;-69
2021/03/30 06:08:48;;;;;;;6.70;4.28;;;8.10;95.60;;;;;;5074310;28;20725;-69
2021/03/30 06:11:15;;;;;;;6.68;4.63;;;8.20;95.50;;;;;;5074277;28;20218;-69
2021/03/30 06:13:47;;;;;;;6.00;4.32;;;8.30;95.30;;;;;;5074752;28;20297;-69
2021/03/30 06:16:33;;;;;;;7.93;4.97;;;8.40;95.30;;;;;;5074862;28;20226;-68
2021/03/30 06:19:05;;;;;;;7.78;5.18;;;8.50;95.40;;;;;;5074592;28;20297;-69
2021/03/30 06:21:32;;;;;;;10.48;5.50;;;8.50;95.40;;;;;;5074075;28;20199;-69
2021/03/30 06:23:59;;;;;;;13.30;5.68;;;8.60;95.20;;;;;;5074556;28;20289;-69
2021/03/30 06:26:26;;;;;;;9.38;5.68;;;8.50;95.20;;;;;;5073972;28;20223;-69
2021/03/30 06:28:53;;;;;;;7.75;5.32;;;8.60;95.20;;;;;;5074266;28;20202;-69
2021/03/30 06:31:20;;;;;;;8.57;5.75;;;8.70;95.00;;;;;;5074222;28;20271;-69
2021/03/30 06:33:50;;;;;;;10.85;6.18;;;8.80;94.70;;;;;;5074227;28;20245;-69
2021/03/30 06:36:22;;;;;;;7.75;5.03;;;8.90;94.40;;;;;;5074082;28;20265;-69
2021/03/30 06:38:54;;;;;;;7.63;5.60;;;9.00;94.50;;;;;;5073722;28;20199;-69
2021/03/30 06:41:40;;;;;;;10.70;5.57;;;9.10;94.30;;;;;;5074065;28;20293;-69
2021/03/30 06:44:28;;;;;;;9.85;5.72;;;9.10;94.20;;;;;;5073925;28;20218;-69
2021/03/30 06:47:11;;;;;;;8.43;6.10;;;9.10;93.90;;;;;;5074100;28;20239;-69
2021/03/30 06:49:50;;;;;;;9.15;6.40;;;9.20;94.00;;;;;;5073942;28;20226;-69
2021/03/30 06:52:18;;;;;;;8.13;6.00;;;9.20;93.80;;;;;;5073936;28;20575;-69
2021/03/30 06:54:53;;;;;;;10.57;6.50;;;9.20;94.10;;;;;;5073744;28;20874;-69
2021/03/30 06:57:40;;;;;;;8.20;6.32;;;9.20;93.60;;;;;;5074286;28;20596;-69
2021/03/30 07:00:10;;;;;;;13.18;7.25;;;9.20;93.20;;;;;;5073641;28;20301;-69
2021/03/30 07:02:40;;;;;;;7.82;6.20;;;9.30;93.30;;;;;;5073903;28;20208;-69
2021/03/30 07:05:20;;;;;;;10.13;6.72;;;9.30;93.00;;;;;;5073955;28;20312;-69
2021/03/30 07:07:51;;;;;;;9.80;6.93;;;9.30;93.00;;;;;;5073562;28;20244;-69
2021/03/30 07:10:18;;;;;;;10.27;6.32;;;9.30;92.70;;;;;;5073615;28;20289;-69
2021/03/30 07:12:47;;;;;;;9.65;6.90;;;9.40;92.70;;;;;;5073729;28;20202;-69
2021/03/30 07:15:15;;;;;;;9.13;6.70;;;9.50;92.60;;;;;;5073218;28;20231;-69
2021/03/30 07:17:43;;;;;;;10.55;6.20;;;9.60;92.70;;;;;;5073703;28;20202;-69
2021/03/30 07:20:13;;;;;;;9.50;6.43;;;9.70;92.70;;;;;;5073947;28;20230;-69
2021/03/30 07:22:42;;;;;;;8.85;6.85;;;9.80;93.00;;;;;;5073499;28;20709;-68
2021/03/30 07:25:12;;;;;;;12.80;7.57;;;9.80;92.90;;;;;;5075741;28;20721;-69
2021/03/30 07:27:47;;;;;;;13.07;6.43;;;9.90;92.80;;;;;;5072359;28;20206;-71
2021/03/30 07:30:15;;;;;;;8.00;6.22;;;10.00;92.30;;;;;;5072685;28;20206;-71
2021/03/30 07:32:50;;;;;;;9.70;6.53;;;10.00;92.20;;;;;;5076113;28;20302;-69
2021/03/30 07:35:20;;;;;;;8.50;7.05;;;10.00;92.40;;;;;;5076181;28;20230;-70
2021/03/30 07:37:55;;;;;;;8.90;6.80;;;10.10;92.40;;;;;;5075796;28;20202;-70
2021/03/30 07:40:22;;;;;;;9.20;6.70;;;10.30;92.50;;;;;;5075949;28;20230;-73
2021/03/30 07:42:50;;;;;;;8.98;6.00;;;10.40;92.00;;;;;;5076088;28;20245;-75
2021/03/30 07:45:21;;;;;;;8.75;6.63;;;10.40;91.90;;;;;;5075754;28;20248;-74
2021/03/30 07:47:49;;;;;;;8.75;6.97;;;10.60;92.00;;;;;;5075891;28;20263;-74
2021/03/30 07:50:20;;;;;;;9.45;6.80;;;10.60;91.60;;;;;;5076144;28;20207;-74
2021/03/30 07:52:49;;;;;;;8.25;6.43;;;10.60;92.10;;;;;;5076025;28;20222;-74
2021/03/30 07:55:25;;;;;;;10.63;6.80;;;10.60;92.10;;;;;;5075815;28;20233;-74
2021/03/30 07:57:59;;;;;;;11.60;7.18;;;10.60;92.30;;;;;;5075376;28;20542;-74
2021/03/30 08:00:47;;;;;;;13.00;6.80;;;10.80;92.50;;;;;;5075833;28;20238;-76
2021/03/30 08:03:19;;;;;;;9.90;6.75;;;11.00;92.20;;;;;;5075823;28;20206;-73
2021/03/30 08:06:03;;;;;;;9.48;7.22;;;11.00;92.30;;;;;;5075536;28;20233;-74
2021/03/30 08:08:30;;;;;;;11.18;7.78;;;11.10;91.90;;;;;;5075399;28;20203;-73
2021/03/30 08:10:57;;;;;;;12.27;6.90;;;11.30;92.00;;;;;;5075460;28;20215;-73
2021/03/30 08:13:24;;;;;;;9.50;7.28;;;11.40;91.40;;;;;;5075574;28;20210;-73
2021/03/30 08:15:52;;;;;;;12.88;6.97;;;11.60;91.50;;;;;;5075360;28;20830;-74
2021/03/30 08:18:20;;;;;;;8.95;7.15;;;11.60;90.90;;;;;;5075299;28;20272;-73
2021/03/30 08:20:59;;;;;;;9.15;7.35;;;11.70;90.80;;;;;;5075309;28;20542;-73
2021/03/30 08:23:26;;;;;;;7.82;6.60;;;11.80;91.20;;;;;;5075372;28;20195;-74
2021/03/30 08:26:15;;;;;;;9.50;6.55;;;11.80;90.90;;;;;;5075238;28;20234;-69
2021/03/30 08:28:56;;;;;;;15.32;7.00;;;12.00;90.60;;;;;;5076891;28;20202;-68
2021/03/30 08:31:25;;;;;;;8.18;6.38;;;12.10;90.40;;;;;;5076074;28;20265;-68
2021/03/30 08:33:53;;;;;;;10.65;7.00;;;12.30;90.30;;;;;;5076478;28;20209;-68
2021/03/30 08:36:24;;;;;;;8.65;6.15;;;12.60;89.20;;;;;;5076028;28;20644;-68
2021/03/30 08:38:52;;;;;;;10.27;6.50;;;12.80;88.60;;;;;;5076494;28;20210;-68
2021/03/30 08:42:03;;;;;;;9.82;6.43;;;12.90;87.70;;;;;;5076322;28;20293;-68
2021/03/30 08:44:36;;;;;;;11.13;6.50;;;13.10;87.90;;;;;;5071315;28;20321;-68
2021/03/30 08:47:04;;;;;;;9.65;5.53;;;13.30;87.30;;;;;;5076065;28;20198;-68
2021/03/30 08:49:37;;;;;;;7.78;5.85;;;13.70;85.70;;;;;;5076403;28;20582;-68
2021/03/30 08:52:07;;;;;;;7.78;5.50;;;13.80;83.30;;;;;;5076358;28;20634;-69
2021/03/30 08:54:36;;;;;;;11.20;5.30;;;13.90;84.00;;;;;;5075976;28;20227;-68
2021/03/30 08:57:05;;;;;;;8.07;6.10;;;14.10;84.10;;;;;;5075960;28;20238;-68
2021/03/30 08:59:32;;;;;;;7.60;5.72;;;14.40;82.30;;;;;;5075998;28;20742;-68
2021/03/30 09:02:00;;;;;;;7.05;5.40;;;14.70;80.50;;;;;;5076078;28;20680;-68
2021/03/30 09:04:31;;;;;;;8.13;6.05;;;15.20;79.30;;;;;;5076088;28;20599;-68
2021/03/30 09:06:58;;;;;;;6.93;5.25;;;15.70;77.70;;;;;;5075640;28;20204;-68
2021/03/30 09:09:27;;;;;;;7.90;5.28;;;16.30;76.40;;;;;;5075813;28;20206;-69
2021/03/30 09:11:53;;;;;;;6.95;5.15;;;16.40;73.80;;;;;;5075634;28;20232;-69
2021/03/30 09:14:21;;;;;;;6.93;5.40;;;16.40;73.80;;;;;;5075861;28;20240;-69
2021/03/30 09:16:50;;;;;;;7.45;5.85;;;16.20;73.00;;;;;;5075926;28;20567;-69
2021/03/30 09:19:22;;;;;;;10.45;6.03;;;16.20;73.30;;;;;;5075453;28;20679;-68
2021/03/30 09:21:54;;;;;;;6.78;5.35;;;16.10;71.70;;;;;;5075612;28;20195;-68
2021/03/30 09:24:37;;;;;;;6.03;5.53;;;16.20;70.90;;;;;;5075586;28;20211;-68
2021/03/30 09:27:05;;;;;;;5.90;5.18;;;16.30;70.80;;;;;;5075545;28;20212;-68
2021/03/30 09:29:35;;;;;;;6.55;5.10;;;16.40;69.10;;;;;;5075730;28;20544;-68
2021/03/30 09:32:02;;;;;;;7.30;5.80;;;16.90;70.00;;;;;;5075263;28;20225;-68
2021/03/30 09:34:28;;;;;;;7.82;5.40;;;17.20;65.50;;;;;;5075301;28;20209;-68
2021/03/30 09:36:58;;;;;;;8.70;5.75;;;17.30;66.20;;;;;;5075097;28;20293;-68
2021/03/30 09:39:25;;;;;;;6.32;5.35;;;17.40;65.90;;;;;;5075433;28;20198;-68
2021/03/30 09:41:53;;;;;;;5.78;4.72;;;17.80;66.30;;;;;;5075501;28;20321;-69
2021/03/30 09:44:21;;;;;;;8.55;5.15;;;18.10;64.50;;;;;;5074564;28;20211;-68
2021/03/30 09:46:50;;;;;;;5.35;4.50;;;18.50;62.50;;;;;;5074736;28;20723;-68
2021/03/30 09:49:20;;;;;;;5.82;5.20;;;19.10;60.70;;;;;;5074604;28;20293;-68
2021/03/30 09:51:47;;;;;;;5.07;4.57;;;19.70;59.30;;;;;;5075085;28;20627;-69
2021/03/30 09:54:38;;;;;;;6.40;5.70;;;21.20;56.40;;;;;;5074819;28;20451;-69
2021/03/30 09:57:13;;;;;;;9.00;5.90;;;23.10;51.50;;;;;;5072244;28;20447;-69
2021/03/30 09:59:44;;;;;;;6.80;5.43;;;24.90;46.60;;;;;;5074950;28;20441;-69
2021/03/30 10:02:10;;;;;;;6.33;5.73;;;26.40;42.70;;;;;;5074999;28;20806;-69
2021/03/30 10:04:37;;;;;;;5.80;5.03;;;27.80;39.70;;;;;;5074677;28;20980;-69
2021/03/30 10:07:14;;;;;;;6.33;5.30;;;28.70;37.00;;;;;;5074824;28;20443;-69
2021/03/30 10:10:01;;;;;;;7.50;6.13;;;29.50;35.00;;;;;;5074660;28;20441;-69
2021/03/30 10:12:30;;;;;;;7.57;5.00;;;29.80;33.30;;;;;;5074648;28;20484;-69
2021/03/30 10:14:58;;;;;;;6.60;5.20;;;30.10;32.60;;;;;;5074601;28;20469;-69
2021/03/30 10:17:26;;;;;;;5.67;5.10;;;30.00;32.30;;;;;;5074377;28;20452;-69
2021/03/30 10:19:53;;;;;;;5.90;5.10;;;30.10;31.80;;;;;;5074339;28;20448;-69
2021/03/30 10:22:25;;;;;;;7.30;5.07;;;30.30;31.30;;;;;;5074469;28;20443;-69
2021/03/30 10:25:11;;;;;;;8.53;5.23;;;30.10;31.40;;;;;;5074227;28;20831;-69
2021/03/30 10:27:38;;;;;;;10.03;5.13;;;30.40;31.20;;;;;;5074152;28;20436;-69
2021/03/30 10:30:07;;;;;;;7.90;4.77;;;32.00;30.10;;;;;;5074065;28;21032;-70
2021/03/30 10:32:46;;;;;;;5.73;5.23;;;33.20;28.70;;;;;;5074162;28;20519;-70
2021/03/30 10:35:12;;;;;;;7.23;4.97;;;34.10;28.00;;;;;;5073887;28;20465;-70
2021/03/30 10:37:39;;;;;;;6.47;5.40;;;35.10;27.30;;;;;;5073783;28;20445;-70
2021/03/30 10:40:06;;;;;;;8.33;5.17;;;34.80;27.00;;;;;;5074290;28;21011;-70
2021/03/30 10:42:37;;;;;;;6.30;5.53;;;34.20;26.30;;;;;;5074245;28;20476;-70
2021/03/30 10:45:07;;;;;;;5.97;5.13;;;33.00;26.60;;;;;;5073811;28;20484;-70
2021/03/30 10:47:35;;;;;;;5.40;4.90;;;32.40;26.80;;;;;;5073926;28;20442;-69
2021/03/30 10:50:03;;;;;;;5.30;4.80;;;31.90;27.90;;;;;;5074130;28;20445;-69
2021/03/30 10:52:31;;;;;;;7.33;5.60;;;31.10;27.60;;;;;;5074177;28;20528;-69
2021/03/30 10:54:59;;;;;;;5.27;4.27;;;30.80;28.30;;;;;;5074120;28;20560;-69
2021/03/30 10:57:27;;;;;;;5.50;4.30;;;30.40;28.30;;;;;;5073708;28;20436;-69
2021/03/30 10:59:55;;;;;;;5.73;5.23;;;30.20;28.50;;;;;;5073726;28;20795;-70
2021/03/30 11:02:23;;;;;;;4.50;4.10;;;30.70;28.20;;;;;;5073881;28;20476;-69
2021/03/30 11:04:49;;;;;;;4.50;4.10;;;30.30;26.60;;;;;;5073428;28;20465;-70
2021/03/30 11:07:16;;;;;;;5.43;4.40;;;30.80;27.50;;;;;;5073041;28;20539;-69
2021/03/30 11:09:43;;;;;;;4.50;3.70;;;31.10;26.80;;;;;;5073341;28;20449;-69
2021/03/30 11:12:10;;;;;;;4.20;3.87;;;31.20;26.10;;;;;;5073567;28;20536;-69
2021/03/30 11:14:37;;;;;;;4.20;3.80;;;31.90;26.40;;;;;;5073526;28;20551;-70
2021/03/30 11:17:03;;;;;;;4.27;3.87;;;32.50;25.20;;;;;;5073469;28;20484;-69
2021/03/30 11:19:31;;;;;;;7.10;4.13;;;32.70;24.70;;;;;;5073894;28;20451;-68
2021/03/30 11:21:58;;;;;;;4.90;4.50;;;33.20;24.20;;;;;;5073858;28;20879;-68
2021/03/30 11:24:28;;;;;;;3.97;3.60;;;33.40;25.30;;;;;;5073107;28;20436;-68
2021/03/30 11:26:56;;;;;;;3.70;3.40;;;34.00;23.90;;;;;;5073214;28;20451;-68
2021/03/30 11:29:26;;;;;;;3.67;3.37;;;32.90;24.70;;;;;;5073664;28;20456;-68
2021/03/30 11:32:03;;;;;;;4.40;3.60;;;33.40;24.60;;;;;;5073830;28;20449;-68
2021/03/30 11:34:35;;;;;;;10.73;3.60;;;32.00;24.70;;;;;;5073089;28;20447;-68
2021/03/30 11:37:05;;;;;;;3.50;3.20;;;32.30;25.50;;;;;;5073343;28;20452;-68
2021/03/30 11:39:31;;;;;;;4.23;3.50;;;33.00;24.50;;;;;;5073329;28;20441;-68
2021/03/30 11:41:58;;;;;;;3.87;3.57;;;33.80;23.70;;;;;;5073468;28;20472;-68
2021/03/30 11:44:24;;;;;;;4.37;3.97;;;34.10;23.40;;;;;;5073203;28;20457;-68
2021/03/30 11:46:50;;;;;;;4.50;4.10;;;34.50;23.60;;;;;;5073137;28;20631;-67
2021/03/30 11:49:16;;;;;;;4.17;3.77;;;34.30;23.80;;;;;;5073157;28;20510;-68
2021/03/30 11:51:44;;;;;;;4.53;4.13;;;33.70;24.50;;;;;;5073361;28;20851;-68
2021/03/30 11:54:11;;;;;;;4.33;4.03;;;33.30;24.40;;;;;;5073279;28;20585;-68
2021/03/30 11:56:37;;;;;;;5.90;4.40;;;32.70;24.60;;;;;;5072695;28;20935;-67
2021/03/30 11:59:03;;;;;;;4.07;3.70;;;32.10;25.50;;;;;;5073387;28;20471;-67
2021/03/30 12:01:30;;;;;;;4.40;3.70;;;31.60;25.10;;;;;;5073404;28;20898;-67
2021/03/30 12:03:56;;;;;;;4.30;3.90;;;30.70;25.90;;;;;;5073004;28;20539;-67
2021/03/30 12:06:22;;;;;;;4.90;3.90;;;29.70;25.90;;;;;;5072919;28;20502;-67
2021/03/30 12:08:49;;;;;;;4.77;4.30;;;28.90;27.40;;;;;;5072935;28;20445;-69
2021/03/30 12:11:16;;;;;;;4.50;4.10;;;28.00;28.30;;;;;;5073239;28;20437;-69
2021/03/30 12:13:42;;;;;;;3.90;3.50;;;27.40;28.50;;;;;;5073371;28;20488;-69
2021/03/30 12:16:11;;;;;;;3.93;3.50;;;26.80;28.90;;;;;;5073397;28;20564;-69
2021/03/30 12:18:37;;;;;;;2.90;2.70;;;26.40;28.20;;;;;;5076688;28;20445;-69
2021/03/30 12:21:04;;;;;;;3.40;3.10;;;26.10;29.10;;;;;;5076443;28;20547;-69
2021/03/30 12:23:30;;;;;;;5.00;3.20;;;25.90;28.80;;;;;;5076764;28;20502;-69
2021/03/30 12:25:58;;;;;;;4.10;3.40;;;25.90;28.90;;;;;;5076560;28;20507;-69
2021/03/30 12:28:24;;;;;;;4.00;3.60;;;25.90;29.10;;;;;;5076365;28;20501;-69
2021/03/30 12:30:52;;;;;;;5.07;3.90;;;25.80;30.10;;;;;;5076800;28;20480;-69
2021/03/30 12:33:18;;;;;;;5.00;4.50;;;25.70;30.10;;;;;;5076470;28;20459;-69
2021/03/30 12:35:45;;;;;;;4.57;3.90;;;25.60;31.10;;;;;;5076567;28;20508;-69
2021/03/30 12:38:11;;;;;;;6.30;4.00;;;25.50;31.50;;;;;;5076371;28;20455;-69
2021/03/30 12:40:37;;;;;;;4.17;3.77;;;25.40;30.70;;;;;;5076423;28;20459;-69
2021/03/30 12:43:05;;;;;;;4.50;4.10;;;25.40;31.10;;;;;;5076397;28;20894;-69
2021/03/30 12:45:34;;;;;;;5.47;3.83;;;25.30;31.40;;;;;;5075810;28;20574;-69
2021/03/30 12:48:01;;;;;;;4.10;3.60;;;25.10;30.70;;;;;;5076088;28;20494;-69
2021/03/30 12:50:28;;;;;;;4.80;3.87;;;25.10;31.60;;;;;;5076219;28;20444;-69
2021/03/30 12:52:55;;;;;;;4.97;4.47;;;25.10;32.10;;;;;;5076274;28;20440;-69
2021/03/30 12:55:21;;;;;;;3.70;3.33;;;24.90;32.10;;;;;;5075772;28;20465;-69
2021/03/30 12:57:48;;;;;;;4.50;4.10;;;24.90;32.00;;;;;;5075793;28;20451;-69
2021/03/30 13:00:15;;;;;;;4.47;4.07;;;25.00;31.60;;;;;;5075655;28;20526;-69
2021/03/30 13:02:42;;;;;;;4.23;3.83;;;25.00;30.00;;;;;;5075622;28;20568;-69